Time,TemperatureF,DewpointF,PressureIn,WindDirection,WindDirectionDegrees,WindSpeedMPH,WindSpeedGustMPH,Humidity,HourlyPrecipIn,Conditions,Clouds,dailyrainin,SolarRadiationWatts/m^2,SoftwareType,DateUTC
2013-02-03 00:01:00,45.0,40.0,-100.00,South,189,0.0,3.0,83,0.00,,,0.00,0.000000,,2013-02-03 08:01:00,
2013-02-03 00:32:00,41.0,39.0,-100.00,WSW,245,1.0,3.0,92,0.00,,,0.00,0.000000,,2013-02-03 08:32:00,
2013-02-03 00:42:00,41.0,39.0,-100.00,WSW,245,1.0,3.0,92,0.00,,,0.00,0.000000,,2013-02-03 08:42:00,
2013-02-03 00:52:00,41.0,39.0,-100.00,WSW,245,1.0,3.0,92,0.00,,,0.00,0.000000,,2013-02-03 08:52:00,
2013-02-03 01:02:00,41.0,39.0,-100.00,WSW,245,1.0,3.0,92,0.00,,,0.00,0.000000,,2013-02-03 09:02:00,
2013-02-03 01:32:00,40.0,38.0,-100.00,SW,222,1.0,4.0,93,0.00,,,-99.99,0.000000,,2013-02-03 09:32:00,
2013-02-03 01:42:00,40.0,38.0,-100.00,SW,222,1.0,4.0,93,0.00,,,-99.99,0.000000,,2013-02-03 09:42:00,
2013-02-03 01:52:00,40.0,38.0,-100.00,SW,222,1.0,4.0,93,0.00,,,-99.99,0.000000,,2013-02-03 09:52:00,
2013-02-03 02:01:00,40.0,38.0,-100.00,SW,222,1.0,4.0,93,0.00,,,-99.99,0.000000,,2013-02-03 10:01:00,
2013-02-03 02:32:00,39.0,37.0,-100.00,SW,221,2.0,4.0,92,0.00,,,0.00,0.000000,,2013-02-03 10:32:00,
2013-02-03 02:42:00,39.0,37.0,-100.00,SW,221,2.0,4.0,92,0.00,,,0.00,0.000000,,2013-02-03 10:42:00,
2013-02-03 02:52:00,39.0,37.0,-100.00,SW,221,2.0,4.0,92,0.00,,,0.00,0.000000,,2013-02-03 10:52:00,
2013-02-03 03:01:00,39.0,37.0,-100.00,SW,221,2.0,4.0,92,0.00,,,0.00,0.000000,,2013-02-03 11:01:00,
2013-02-03 03:32:00,38.0,35.0,-100.00,WSW,240,2.0,5.0,90,0.00,,,-99.99,0.000000,,2013-02-03 11:32:00,
2013-02-03 03:42:00,38.0,35.0,-100.00,WSW,240,2.0,5.0,90,0.00,,,-99.99,0.000000,,2013-02-03 11:42:00,
2013-02-03 03:52:00,38.0,35.0,-100.00,WSW,240,2.0,5.0,90,0.00,,,-99.99,0.000000,,2013-02-03 11:52:00,
2013-02-03 04:02:00,38.0,35.0,-100.00,WSW,240,2.0,5.0,90,0.00,,,-99.99,0.000000,,2013-02-03 12:02:00,
2013-02-03 04:32:00,37.0,35.0,-100.00,SSW,207,0.0,3.0,93,0.00,,,-99.99,0.000000,,2013-02-03 12:32:00,
2013-02-03 04:42:00,37.0,35.0,-100.00,SSW,207,0.0,3.0,93,0.00,,,-99.99,0.000000,,2013-02-03 12:42:00,
2013-02-03 04:53:00,37.0,35.0,-100.00,SSW,207,0.0,3.0,93,0.00,,,-99.99,0.000000,,2013-02-03 12:53:00,
2013-02-03 05:02:00,37.0,35.0,-100.00,SSW,207,0.0,3.0,93,0.00,,,-99.99,0.000000,,2013-02-03 13:02:00,
2013-02-03 05:32:00,35.0,33.0,-100.00,SSW,212,1.0,3.0,93,0.00,,,0.00,0.000000,,2013-02-03 13:32:00,
2013-02-03 05:42:00,35.0,33.0,-100.00,SSW,212,1.0,3.0,93,0.00,,,0.00,0.000000,,2013-02-03 13:42:00,
2013-02-03 05:52:00,35.0,33.0,-100.00,SSW,212,1.0,3.0,93,0.00,,,0.00,0.000000,,2013-02-03 13:52:00,
2013-02-03 06:02:00,35.0,33.0,-100.00,SSW,212,1.0,3.0,93,0.00,,,0.00,0.000000,,2013-02-03 14:02:00,
2013-02-03 06:32:00,34.0,33.0,-100.00,WSW,241,2.0,2.0,95,-99.99,,,0.00,0.000000,,2013-02-03 14:32:00,
2013-02-03 06:42:00,34.0,33.0,-100.00,WSW,241,2.0,2.0,95,-99.99,,,0.00,0.000000,,2013-02-03 14:42:00,
2013-02-03 06:52:00,34.0,33.0,-100.00,WSW,241,2.0,2.0,95,-99.99,,,0.00,0.000000,,2013-02-03 14:52:00,
2013-02-03 07:02:00,34.0,33.0,-100.00,WSW,241,2.0,2.0,95,-99.99,,,0.00,0.000000,,2013-02-03 15:02:00,
2013-02-03 07:33:00,33.0,32.0,-100.00,SW,236,2.0,2.0,95,-99.99,,,0.00,0.000000,,2013-02-03 15:33:00,
2013-02-03 07:42:00,33.0,32.0,-100.00,SW,236,2.0,2.0,95,-99.99,,,0.00,0.000000,,2013-02-03 15:42:00,
2013-02-03 07:52:00,33.0,32.0,-100.00,SW,236,2.0,2.0,95,-99.99,,,0.00,0.000000,,2013-02-03 15:52:00,
2013-02-03 08:02:00,33.0,32.0,-100.00,SW,236,2.0,2.0,95,-99.99,,,0.00,0.000000,,2013-02-03 16:02:00,
2013-02-03 08:33:00,33.0,32.0,-100.00,WSW,241,1.0,2.0,95,-99.99,,,0.00,15.000000,,2013-02-03 16:33:00,
2013-02-03 08:42:00,33.0,32.0,-100.00,WSW,241,1.0,2.0,95,-99.99,,,0.00,15.000000,,2013-02-03 16:42:00,
2013-02-03 08:52:00,33.0,32.0,-100.00,WSW,241,1.0,2.0,95,-99.99,,,0.00,15.000000,,2013-02-03 16:52:00,
2013-02-03 09:02:00,33.0,32.0,-100.00,WSW,241,1.0,2.0,95,-99.99,,,0.00,15.000000,,2013-02-03 17:02:00,
2013-02-03 09:32:00,43.0,38.0,-100.00,East,93,2.0,3.0,82,-99.99,,,0.00,218.000000,,2013-02-03 17:32:00,
2013-02-03 09:42:00,43.0,38.0,-100.00,East,93,2.0,3.0,82,-99.99,,,0.00,218.000000,,2013-02-03 17:42:00,
2013-02-03 09:52:00,43.0,38.0,-100.00,East,93,2.0,3.0,82,-99.99,,,0.00,218.000000,,2013-02-03 17:52:00,
2013-02-03 10:02:00,43.0,38.0,-100.00,East,93,2.0,3.0,82,-99.99,,,0.00,218.000000,,2013-02-03 18:02:00,
2013-02-03 10:23:00,48.0,40.0,-100.00,East,92,4.0,6.0,73,0.00,,,0.00,351.000000,,2013-02-03 18:23:00,
2013-02-03 10:33:00,48.0,40.0,-100.00,East,92,4.0,6.0,73,0.00,,,0.00,351.000000,,2013-02-03 18:33:00,
2013-02-03 10:42:00,48.0,40.0,-100.00,East,92,4.0,6.0,73,0.00,,,0.00,351.000000,,2013-02-03 18:42:00,
2013-02-03 10:52:00,48.0,40.0,-100.00,East,92,4.0,6.0,73,0.00,,,0.00,351.000000,,2013-02-03 18:52:00,
2013-02-03 11:01:00,48.0,40.0,-100.00,East,92,4.0,6.0,73,0.00,,,0.00,351.000000,,2013-02-03 19:01:00,
2013-02-03 11:32:00,54.0,40.0,-100.00,East,89,4.0,6.0,58,0.00,,,0.00,498.000000,,2013-02-03 19:32:00,
2013-02-03 11:42:00,54.0,40.0,-100.00,East,89,4.0,6.0,58,0.00,,,0.00,498.000000,,2013-02-03 19:42:00,
2013-02-03 11:52:00,54.0,40.0,-100.00,East,89,4.0,6.0,58,0.00,,,0.00,498.000000,,2013-02-03 19:52:00,
2013-02-03 12:01:00,54.0,40.0,-100.00,East,89,4.0,6.0,58,0.00,,,0.00,498.000000,,2013-02-03 20:01:00,
2013-02-03 12:33:00,56.0,43.0,-100.00,East,95,7.0,12.0,61,0.00,,,-99.99,603.000000,,2013-02-03 20:33:00,
2013-02-03 12:42:00,56.0,43.0,-100.00,East,95,7.0,12.0,61,0.00,,,-99.99,603.000000,,2013-02-03 20:42:00,
2013-02-03 12:52:00,56.0,43.0,-100.00,East,95,7.0,12.0,61,0.00,,,-99.99,603.000000,,2013-02-03 20:52:00,
2013-02-03 13:02:00,56.0,43.0,-100.00,East,95,7.0,12.0,61,0.00,,,-99.99,603.000000,,2013-02-03 21:02:00,
2013-02-03 13:33:00,56.0,44.0,-100.00,ESE,103,7.0,14.0,65,0.00,,,0.00,646.000000,,2013-02-03 21:33:00,
2013-02-03 13:42:00,56.0,44.0,-100.00,ESE,103,7.0,14.0,65,0.00,,,0.00,646.000000,,2013-02-03 21:42:00,
2013-02-03 13:52:00,56.0,44.0,-100.00,ESE,103,7.0,14.0,65,0.00,,,0.00,646.000000,,2013-02-03 21:52:00,
2013-02-03 14:01:00,56.0,44.0,-100.00,ESE,103,7.0,14.0,65,0.00,,,0.00,646.000000,,2013-02-03 22:01:00,
2013-02-03 14:32:00,59.0,46.0,-100.00,East,97,5.0,12.0,62,0.00,,,0.00,606.000000,,2013-02-03 22:32:00,
2013-02-03 14:42:00,59.0,46.0,-100.00,East,97,5.0,12.0,62,0.00,,,0.00,606.000000,,2013-02-03 22:42:00,
2013-02-03 14:52:00,59.0,46.0,-100.00,East,97,5.0,12.0,62,0.00,,,0.00,606.000000,,2013-02-03 22:52:00,
2013-02-03 15:01:00,59.0,46.0,-100.00,East,97,5.0,12.0,62,0.00,,,0.00,606.000000,,2013-02-03 23:01:00,
2013-02-03 15:32:00,59.0,46.0,-100.00,East,92,5.0,11.0,61,0.00,,,0.00,497.000000,,2013-02-03 23:32:00,
2013-02-03 15:42:00,59.0,46.0,-100.00,East,92,5.0,11.0,61,0.00,,,0.00,497.000000,,2013-02-03 23:42:00,
2013-02-03 15:52:00,59.0,46.0,-100.00,East,92,5.0,11.0,61,0.00,,,0.00,497.000000,,2013-02-03 23:52:00,
2013-02-03 16:01:00,59.0,46.0,-100.00,East,92,5.0,11.0,61,0.00,,,0.00,497.000000,,2013-02-04 00:01:00,
2013-02-03 16:32:00,60.0,47.0,-100.00,ESE,109,4.0,11.0,62,0.00,,,0.00,344.000000,,2013-02-04 00:32:00,
2013-02-03 16:42:00,60.0,47.0,-100.00,ESE,109,4.0,11.0,62,0.00,,,0.00,344.000000,,2013-02-04 00:42:00,
2013-02-03 16:52:00,60.0,47.0,-100.00,ESE,109,4.0,11.0,62,0.00,,,0.00,344.000000,,2013-02-04 00:52:00,
2013-02-03 17:01:00,60.0,47.0,-100.00,ESE,109,4.0,11.0,62,0.00,,,0.00,344.000000,,2013-02-04 01:01:00,
2013-02-03 17:21:00,53.0,46.0,-100.00,SW,219,0.0,8.0,77,0.00,,,0.00,65.000000,,2013-02-04 01:21:00,
2013-02-03 17:32:00,53.0,46.0,-100.00,SW,219,0.0,8.0,77,0.00,,,0.00,65.000000,,2013-02-04 01:32:00,
2013-02-03 17:42:00,53.0,46.0,-100.00,SW,219,0.0,8.0,77,0.00,,,0.00,65.000000,,2013-02-04 01:42:00,
2013-02-03 17:52:00,53.0,46.0,-100.00,SW,219,0.0,8.0,77,0.00,,,0.00,65.000000,,2013-02-04 01:52:00,
2013-02-03 18:01:00,53.0,46.0,-100.00,SW,219,0.0,8.0,77,0.00,,,0.00,65.000000,,2013-02-04 02:01:00,
2013-02-03 18:21:00,48.0,44.0,-100.00,NW,304,1.0,3.0,87,0.00,,,0.00,6.000000,,2013-02-04 02:21:00,
2013-02-03 18:32:00,48.0,44.0,-100.00,NW,304,1.0,3.0,87,0.00,,,0.00,6.000000,,2013-02-04 02:32:00,
2013-02-03 18:42:00,48.0,44.0,-100.00,NW,304,1.0,3.0,87,0.00,,,0.00,6.000000,,2013-02-04 02:42:00,
2013-02-03 18:52:00,48.0,44.0,-100.00,NW,304,1.0,3.0,87,0.00,,,0.00,6.000000,,2013-02-04 02:52:00,
2013-02-03 19:01:00,48.0,44.0,-100.00,NW,304,1.0,3.0,87,0.00,,,0.00,6.000000,,2013-02-04 03:01:00,
2013-02-03 19:32:00,46.0,44.0,-100.00,East,91,2.0,4.0,92,0.00,,,0.00,0.000000,,2013-02-04 03:32:00,
2013-02-03 19:42:00,46.0,44.0,-100.00,East,91,2.0,4.0,92,0.00,,,0.00,0.000000,,2013-02-04 03:42:00,
2013-02-03 19:52:00,46.0,44.0,-100.00,East,91,2.0,4.0,92,0.00,,,0.00,0.000000,,2013-02-04 03:52:00,
2013-02-03 20:01:00,46.0,44.0,-100.00,East,91,2.0,4.0,92,0.00,,,0.00,0.000000,,2013-02-04 04:01:00,
2013-02-03 20:32:00,43.0,41.0,-100.00,SW,226,2.0,4.0,93,0.00,,,0.00,0.000000,,2013-02-04 04:32:00,
2013-02-03 20:42:00,43.0,41.0,-100.00,SW,226,2.0,4.0,93,0.00,,,0.00,0.000000,,2013-02-04 04:42:00,
2013-02-03 20:52:00,43.0,41.0,-100.00,SW,226,2.0,4.0,93,0.00,,,0.00,0.000000,,2013-02-04 04:52:00,
2013-02-03 21:03:00,43.0,41.0,-100.00,SW,226,2.0,4.0,93,0.00,,,0.00,0.000000,,2013-02-04 05:03:00,
2013-02-03 21:33:00,41.0,39.0,-100.00,SW,231,1.0,3.0,94,0.00,,,0.00,0.000000,,2013-02-04 05:33:00,
2013-02-03 21:42:00,41.0,39.0,-100.00,SW,231,1.0,3.0,94,0.00,,,0.00,0.000000,,2013-02-04 05:42:00,
2013-02-03 21:52:00,41.0,39.0,-100.00,SW,231,1.0,3.0,94,0.00,,,0.00,0.000000,,2013-02-04 05:52:00,
2013-02-03 22:01:00,41.0,39.0,-100.00,SW,231,1.0,3.0,94,0.00,,,0.00,0.000000,,2013-02-04 06:01:00,
2013-02-03 22:21:00,40.0,39.0,-100.00,SSW,207,0.0,5.0,95,0.00,,,0.00,0.000000,,2013-02-04 06:21:00,
2013-02-03 22:32:00,40.0,39.0,-100.00,SSW,207,0.0,5.0,95,0.00,,,0.00,0.000000,,2013-02-04 06:32:00,
2013-02-03 22:42:00,40.0,39.0,-100.00,SSW,207,0.0,5.0,95,0.00,,,0.00,0.000000,,2013-02-04 06:42:00,
2013-02-03 22:52:00,40.0,39.0,-100.00,SSW,207,0.0,5.0,95,0.00,,,0.00,0.000000,,2013-02-04 06:52:00,
2013-02-03 23:01:00,40.0,39.0,-100.00,SSW,207,0.0,5.0,95,0.00,,,0.00,0.000000,,2013-02-04 07:01:00,
2013-02-03 23:32:00,40.0,39.0,-100.00,SW,217,3.0,6.0,95,0.00,,,0.00,0.000000,,2013-02-04 07:32:00,
2013-02-03 23:42:00,40.0,39.0,-100.00,SW,217,3.0,6.0,95,0.00,,,0.00,0.000000,,2013-02-04 07:42:00,
2013-02-03 23:52:00,40.0,39.0,-100.00,SW,217,3.0,6.0,95,0.00,,,0.00,0.000000,,2013-02-04 07:52:00,